Boardman, Ohio
Current Conditions -  °F | °C
As of 9:24 AM on Tuesday 27 Jan 2015 (Local Time) from KUCP Reporting Station
Light Snow Light Snow  
Wind Chill: 18°   Ceiling: 100
Heat Index: 18°   Visibility: 2.5mi
Dew Point: 16°   Wind: 3mph
Humidity: 93%   Direction: 330°NNW
Pressure: 29.95"   Gusts: NA
Location:  41.02°N, 80.66°W
Report Text: KUCP 271424Z AUTO 33003KT 2 1/2SM -SN BR BKN001 OVC016 M08/M09 A2995 RMK AO2 BKN V SCT P0000
Loading
Personal Weather Stations






























Interactive Weather Map New forecast layout! Learn more

10-Day Weather Forecast

Advertisements
Track Severe Weather on mobile